HEBOWX Weather Reports


Display with metric or nautical units.
time (UTC)temp
F
wind
direction
speed
MPH
gust
MPH
rain 1hr
in
rain 24hr
in
rain mn
in
humidity
%
barometer
mb
20171120073739 43 200 30.0 53.0 0.04 0.51 0.51 100 1003.9
20171120073239 43 210 28.0 53.0 0.04 0.51 0.51 100 1003.8
20171120072739 43 193 30.0 52.0 0.04 0.51 0.51 100 1003.9
20171120072239 42 182 27.0 52.0 0.03 0.51 0.51 100 1003.9
20171120071739 42 187 28.0 50.0 0.03 0.50 0.50 100 1001.7
20171120071239 42 205 34.0 50.0 0.02 0.50 0.50 100 1003.9
20171120070741 42 191 25.0 49.0 0.02 0.49 0.49 100 1004.0
20171120070239 42 179 29.0 49.0 0.02 0.49 0.49 100 1004.2
20171120065739 42 198 23.0 54.0 0.02 0.48 0.49 100 1001.2
20171120065239 42 196 26.0 54.0 0.02 0.48 0.48 100 1004.3
20171120064739 42 145 25.0 54.0 0.02 0.48 0.48 100 1004.3
20171120064239 42 152 28.0 53.0 0.02 0.48 0.48 100 1000.9
20171120063739 42 205 31.0 53.0 0.02 0.47 0.47 100 1004.3
20171120063239 42 201 29.0 51.0 0.03 0.47 0.47 100 1004.3
20171120062739 42 163 36.0 50.0 0.03 0.47 0.47 100 1001.4
20171120062239 42 180 29.0 50.0 0.04 0.47 0.47 100 1002.1
20171120061739 41 161 30.0 50.0 0.04 0.47 0.47 100 1004.6
20171120061239 42 208 35.0 47.0 0.05 0.47 0.47 100 1001.9
20171120060739 42 200 32.0 63.0 0.05 0.47 0.47 100 1004.6
20171120060239 42 189 33.0 63.0 0.04 0.47 0.47 100 1001.2
20171120055739 42 211 33.0 63.0 0.04 0.47 0.47 100 1004.7
20171120055239 42 201 28.0 46.0 0.05 0.46 0.46 100 1002.5
20171120054739 41 204 33.0 50.0 0.05 0.46 0.46 100 1004.6
20171120054239 41 215 25.0 50.0 0.05 0.46 0.46 100 1001.8
20171120053739 41 169 30.0 50.0 0.05 0.45 0.46 100 1004.4
20171120053239 41 190 29.0 61.0 0.05 0.45 0.45 100 1001.7
20171120052741 41 130 26.0 61.0 0.05 0.45 0.45 100 1004.2
20171120052239 41 152 26.0 61.0 0.04 0.44 0.44 100 1004.4
20171120051739 41 194 33.0 54.0 0.04 0.43 0.43 100 1004.3
20171120051239 41 207 37.0 43.0 0.07 0.43 0.43 100 998.3
20171120050739 41 210 28.0 56.0 0.07 0.43 0.43 100 1004.4
20171120050239 41 201 26.0 56.0 0.10 0.42 0.42 100 998.7
20171120045739 41 156 32.0 56.0 0.10 0.42 0.42 100 1004.4
20171120045239 41 179 27.0 46.0 0.12 0.42 0.42 100 999.2
20171120044739 41 190 24.0 51.0 0.12 0.41 0.41 100 1003.0
20171120044239 41 203 25.0 51.0 0.14 0.41 0.41 100 993.5
20171120043739 41 183 26.0 51.0 0.14 0.40 0.40 100 998.8
20171120043239 41 162 25.0 45.0 0.16 0.40 0.40 100 1004.7
20171120042739 41 187 27.0 65.0 0.16 0.39 0.40 100 1001.4
20171120042239 40 193 32.0 65.0 0.19 0.39 0.39 100 1004.5
20171120041740 40 182 29.0 65.0 0.19 0.39 0.39 100 999.0
20171120041238 40 151 28.0 48.0 0.18 0.38 0.39 100 1000.8
20171120040740 40 162 32.0 49.0 0.18 0.37 0.37 100 1004.3
20171120040239 40 165 27.0 49.0 0.17 0.35 0.35 100 1004.5
20171120035739 40 203 29.0 49.0 0.17 0.34 0.34 100 1001.0
20171120035239 40 182 26.0 42.0 0.16 0.32 0.32 100 1001.0
20171120034739 40 190 26.0 59.0 0.16 0.30 0.31 100 1001.9
20171120034240 40 172 29.0 59.0 0.15 0.28 0.29 100 1000.8
20171120033739 40 176 24.0 59.0 0.15 0.27 0.27 100 1004.0
20171120033239 40 162 24.0 40.0 0.13 0.25 0.26 100 1004.3
20171120032739 40 211 26.0 58.0 0.13 0.24 0.25 100 1001.8
20171120032238 40 194 26.0 58.0 0.11 0.23 0.23 100 1004.2
20171120031738 40 186 26.0 58.0 0.11 0.21 0.21 100 999.8
20171120031239 40 179 34.0 52.0 0.11 0.20 0.20 100 1004.3
20171120030741 40 205 28.0 53.0 0.11 0.19 0.19 100 1004.2
20171120030239 39 162 24.0 53.0 0.12 0.17 0.17 100 1001.0
20171120025738 39 117 30.0 53.0 0.12 0.16 0.16 100 1004.4
20171120025238 40 169 26.0 51.0 0.12 0.15 0.15 100 1004.5
20171120024738 39 170 27.0 51.0 0.12 0.14 0.14 100 1004.4
20171120024239 39 154 27.0 51.0 0.11 0.13 0.13 100 1004.8
20171120023738 39 169 26.0 59.0 0.11 0.12 0.12 100 1005.2
20171120023238 39 165 27.0 59.0 0.10 0.11 0.11 100 1005.2
20171120022738 39 208 36.0 59.0 0.10 0.10 0.11 100 1005.1
20171120021738 38 142 27.0 47.0 0.09 0.09 0.09 100 1005.3
20171120021238 39 154 25.0 47.0 0.06 0.08 0.08 100 1005.3
20171120020739 39 183 22.0 42.0 0.06 0.07 0.07 100 999.1
20171120020239 38 210 23.0 42.0 0.03 0.06 0.06 100 1005.6
20171120015739 38 169 22.0 42.0 0.03 0.04 0.04 100 1005.6
20171120015238 38 147 26.0 50.0 0.01 0.03 0.03 100 1003.7
20171120014740 38 182 20.0 50.0 0.01 0.02 0.02 100 1005.4
20171120014240 38 183 19.0 50.0 0.00 0.01 0.01 100 1001.7
20171120013738 38 161 22.0 40.0 0.00 0.01 0.01 100 1005.4
20171120013239 38 165 25.0 40.0 0.00 0.00 0.00 100 1005.5
20171120012738 39 124 26.0 43.0 0.00 0.00 0.00 100 1005.4
20171120012239 38 173 26.0 43.0 0.00 0.00 0.00 100 1002.0
20171120011738 38 1 24.0 43.0 0.00 0.00 0.00 100 1005.7
20171120011239 38 151 26.0 46.0 0.00 0.00 0.00 100 1004.2
20171120010738 38 170 21.0 46.0 0.00 0.00 0.00 100 1005.8
20171120010238 38 173 19.0 46.0 0.00 0.00 0.00 100 1003.8
20171120005739 38 176 23.0 41.0 0.00 0.00 0.00 100 1002.6
20171120005238 38 166 22.0 40.0 0.00 0.00 0.00 100 1006.1
20171120004738 38 74 21.0 40.0 0.00 0.00 0.00 100 1006.2
20171120004238 38 189 22.0 40.0 0.00 0.00 0.00 100 1006.4
20171120003738 38 142 24.0 37.0 0.00 0.00 0.00 100 1006.2
20171120003239 38 113 22.0 33.0 0.00 0.00 0.00 100 1003.3
20171120002739 38 151 14.0 39.0 0.00 0.00 0.00 100 1003.3
20171120002239 38 119 25.0 39.0 0.00 0.00 0.00 100 1004.0
20171120001739 38 172 17.0 39.0 0.00 0.00 0.00 99 1003.6
20171120001239 38 151 22.0 36.0 0.00 0.00 0.00 99 1003.5
20171120000738 38 303 22.0 36.0 0.00 0.00 0.00 99 1004.2
20171120000239 38 117 20.0 31.0 0.00 0.00 0.00 98 1006.7
20171119235739 38 170 20.0 38.0 0.00 0.00 0.00 98 1006.8
20171119235238 38 147 21.0 38.0 0.00 0.00 0.00 97 1007.1
20171119234738 38 142 21.0 38.0 0.00 0.00 0.00 97 1007.1
20171119234238 38 148 22.0 32.0 0.00 0.00 0.00 96 1007.3
20171119233738 38 145 18.0 37.0 0.00 0.00 0.00 96 1007.4
20171119233238 39 165 17.0 37.0 0.00 0.00 0.00 95 1007.5
20171119232738 39 158 19.0 37.0 0.00 0.00 0.00 94 1007.7
20171119232238 39 135 18.0 38.0 0.00 0.00 0.00 93 1008.0
20171119231738 39 138 19.0 38.0 0.00 0.00 0.00 93 1007.9
20171119231239 39 169 16.0 38.0 0.00 0.00 0.00 92 1008.3
20171119230739 39 163 18.0 41.0 0.00 0.00 0.00 91 1008.5
20171119230239 39 186 27.0 41.0 0.00 0.00 0.00 89 1002.9
20171119225739 39 173 20.0 41.0 0.00 0.00 0.00 87 1008.9
20171119225238 39 162 17.0 35.0 0.00 0.00 0.00 85 1005.9
20171119224740 39 149 17.0 35.0 0.00 0.00 0.00 83 1005.1
20171119224239 39 200 18.0 31.0 0.00 0.00 0.00 81 998.8
20171119223739 39 180 22.0 49.0 0.00 0.00 0.00 79 1009.2
20171119223238 40 191 20.0 49.0 0.00 0.00 0.00 78 1009.3
20171119222738 39 166 16.0 49.0 0.00 0.00 0.00 77 1006.7
20171119222238 39 158 17.0 34.0 0.00 0.00 0.00 76 1006.4
20171119221739 39 158 12.0 36.0 0.00 0.00 0.00 76 1003.5
20171119221238 39 184 21.0 36.0 0.00 0.00 0.00 76 1009.6
20171119220738 39 179 22.0 36.0 0.00 0.00 0.00 75 1009.8
20171119220238 39 186 17.0 35.0 0.00 0.00 0.00 74 1009.8
20171119215738 39 169 25.0 35.0 0.00 0.00 0.00 75 1006.6
20171119215238 39 177 23.0 35.0 0.00 0.00 0.00 74 1010.0
20171119214738 39 147 20.0 33.0 0.00 0.00 0.00 74 1009.8
20171119214238 39 162 21.0 37.0 0.00 0.00 0.00 75 1002.0
20171119213738 39 183 19.0 37.0 0.00 0.00 0.00 74 1007.6
20171119213238 39 189 25.0 37.0 0.00 0.00 0.00 75 1009.6
20171119212739 39 197 17.0 31.0 0.00 0.00 0.00 75 1009.9
20171119212239 39 145 22.0 37.0 0.00 0.00 0.00 75 1010.4
20171119211741 39 161 18.0 37.0 0.00 0.00 0.00 76 1010.4
20171119211240 39 151 20.0 37.0 0.00 0.00 0.00 76 1006.6
20171119210739 39 175 20.0 34.0 0.00 0.00 0.00 77 1010.2
20171119210238 39 176 19.0 34.0 0.00 0.00 0.00 78 1010.3
20171119205739 39 138 19.0 31.0 0.00 0.00 0.00 80 1010.3
20171119205238 39 135 19.0 31.0 0.00 0.00 0.00 82 1010.4
20171119204738 39 169 19.0 36.0 0.00 0.00 0.00 84 1010.4
20171119204238 39 169 18.0 36.0 0.00 0.00 0.00 85 1010.5
20171119203739 39 179 18.0 36.0 0.00 0.00 0.00 87 1009.0
20171119203238 39 155 26.0 36.0 0.00 0.00 0.00 89 1010.7
20171119202740 39 166 23.0 33.0 0.00 0.00 0.00 90 1008.5
20171119202238 39 191 21.0 33.0 0.00 0.00 0.00 91 1008.0
20171119201738 39 166 23.0 30.0 0.00 0.00 0.00 92 1010.9
20171119201239 39 145 20.0 36.0 0.00 0.00 0.00 93 1011.0
20171119200739 39 147 6.0 36.0 0.00 0.00 0.00 94 1008.4
20171119200238 38 127 0.0 36.0 0.00 0.00 0.00 94 1011.3
20171119195738 39 170 10.0 33.0 0.00 0.00 0.00 95 1011.3
20171119195238 38 131 20.0 32.0 0.00 0.00 0.00 96 1009.1
20171119194739 38 357 21.0 32.0 0.00 0.00 0.00 96 1005.1
20171119194238 38 114 16.0 31.0 0.00 0.00 0.00 96 1011.8
20171119193738 38 148 6.0 34.0 0.00 0.00 0.00 96 1006.5
20171119193238 38 155 8.0 34.0 0.00 0.00 0.00 96 1012.1
20171119192739 38 194 16.0 34.0 0.00 0.00 0.00 96 1009.5
20171119192238 38 357 21.0 30.0 0.00 0.00 0.00 96 1010.2
20171119191738 38 149 8.0 30.0 0.00 0.00 0.00 95 1012.7
20171119191238 38 99 19.0 31.0 0.00 0.00 0.00 95 1009.6
20171119190739 38 357 19.0 31.0 0.00 0.00 0.00 95 1013.0
20171119190238 38 357 11.0 31.0 0.00 0.00 0.00 95 1013.1
20171119185738 37 155 18.0 30.0 0.00 0.00 0.00 95 1013.1
20171119185238 38 168 12.0 30.0 0.00 0.00 0.00 95 1013.2
20171119184738 37 226 20.0 35.0 0.00 0.00 0.00 95 1010.1
20171119184239 37 0 20.0 35.0 0.00 0.00 0.00 94 1013.5
20171119183739 37 357 16.0 35.0 0.00 0.00 0.00 94 1013.6
20171119183238 37 357 21.0 32.0 0.00 0.00 0.00 93 1013.6
20171119182738 37 357 12.0 35.0 0.00 0.00 0.00 93 1013.3
20171119182238 37 169 12.0 35.0 0.00 0.00 0.00 92 1013.6
20171119181738 37 198 1.0 35.0 0.00 0.00 0.00 92 1010.4
20171119181238 37 173 23.0 30.0 0.00 0.00 0.00 91 1010.4
20171119180738 37 179 8.0 29.0 0.00 0.00 0.00 88 1013.7
20171119180237 37 102 11.0 28.0 0.00 0.00 0.00 88 1013.7
20171119175739 37 190 19.0 28.0 0.00 0.00 0.00 87 1013.7
20171119175240 37 357 20.0 20.0 0.00 0.00 0.00 86 1013.8
20171119174745 37 357 1.0 3.0 0.00 0.00 0.00 83 1013.8
20171119174238 37 357 0.0 20.0 0.00 0.00 0.00 84 1011.6
20171119173738 36 357 0.0 20.0 0.00 0.00 0.00 84 1008.5
20171119173238 36 351 0.0 20.0 0.00 0.00 0.00 84 1013.8
20171119172738 37 357 0.0 7.0 0.00 0.00 0.00 84 1011.9
20171119172238 36 357 0.0 2.0 0.00 0.00 0.00 85 1010.5
20171119171739 36 175 0.0 29.0 0.00 0.00 0.00 85 1007.4
20171119171238 36 196 0.0 29.0 0.00 0.00 0.00 85 1007.2
20171119170739 36 200 21.0 29.0 0.00 0.00 0.00 86 1010.4
20171119170237 36 194 6.0 26.0 0.00 0.00 0.00 87 1008.9
20171119165738 36 170 18.0 26.0 0.00 0.00 0.00 89 1014.0
20171119165238 36 175 5.0 25.0 0.00 0.00 0.00 89 1009.1
20171119164738 36 182 16.0 25.0 0.00 0.00 0.00 91 1011.2
20171119164239 35 169 16.0 25.0 0.00 0.00 0.00 91 1010.4
20171119163737 35 163 16.0 25.0 0.00 0.00 0.00 91 1014.2
20171119163237 35 152 18.0 31.0 0.00 0.00 0.00 93 1014.1
20171119162737 35 183 16.0 31.0 0.00 0.00 0.00 95 1011.1
20171119162238 35 166 16.0 31.0 0.00 0.00 0.00 96 1014.2
20171119161737 35 173 20.0 28.0 0.00 0.00 0.00 97 1014.2
20171119161237 35 169 4.0 32.0 0.00 0.00 0.00 98 1011.8
20171119160737 35 357 6.0 32.0 0.00 0.00 0.00 99 1014.1
20171119160237 35 170 8.0 32.0 0.00 0.00 0.00 99 1010.8
20171119155737 35 177 22.0 33.0 0.00 0.00 0.00 99 1014.2
20171119155239 35 165 21.0 33.0 0.00 0.00 0.00 99 1011.9
20171119154737 35 180 19.0 33.0 0.00 0.00 0.00 99 1014.4
20171119154238 35 180 21.0 36.0 0.00 0.00 0.00 98 1014.4
20171119153737 35 194 19.0 36.0 0.00 0.00 0.00 98 1014.6
20171119153237 35 186 21.0 36.0 0.00 0.00 0.00 97 1014.6
20171119152737 34 187 26.0 31.0 0.00 0.00 0.00 97 1014.8
20171119152237 34 172 24.0 31.0 0.00 0.00 0.00 97 1014.9
20171119151738 34 169 24.0 30.0 0.00 0.00 0.00 96 1014.8
20171119151239 34 175 22.0 30.0 0.00 0.00 0.00 96 1011.1
20171119150737 35 163 19.0 30.0 0.00 0.00 0.00 96 1015.0
20171119150237 34 183 19.0 30.0 0.00 0.00 0.00 95 1015.1
20171119145737 34 196 21.0 34.0 0.00 0.00 0.00 95 1015.1
20171119145237 34 184 21.0 34.0 0.00 0.00 0.00 95 1015.1
20171119144737 34 169 24.0 34.0 0.00 0.00 0.00 94 1015.4
20171119144238 34 189 23.0 32.0 0.00 0.00 0.00 93 1011.9
20171119143738 34 173 21.0 34.0 0.00 0.00 0.00 92 1015.3
20171119143237 34 156 26.0 34.0 0.00 0.00 0.00 92 1015.3
20171119142737 34 198 21.0 34.0 0.00 0.00 0.00 92 1012.1
20171119142237 35 159 21.0 34.0 0.00 0.00 0.00 92 1015.4
20171119141737 34 189 23.0 34.0 0.00 0.00 0.00 91 1012.2
20171119141237 34 161 23.0 34.0 0.00 0.00 0.00 91 1015.3
20171119140737 35 187 22.0 33.0 0.00 0.00 0.00 91 1015.4
20171119140237 35 179 21.0 33.0 0.00 0.00 0.00 90 1012.6
20171119135738 35 205 19.0 30.0 0.00 0.00 0.00 90 1015.5
20171119135237 35 159 19.0 26.0 0.00 0.00 0.00 89 1015.6
20171119134737 35 186 2.0 26.0 0.00 0.00 0.00 88 1015.6
20171119134240 35 149 0.0 30.0 0.00 0.00 0.00 88 1015.7
20171119133738 35 172 16.0 30.0 0.00 0.00 0.00 87 1013.0
20171119133242 35 186 17.0 30.0 0.00 0.00 0.00 86 1016.0
20171119132737 35 182 21.0 29.0 0.00 0.00 0.00 86 1016.3
20171119132238 35 186 18.0 29.0 0.00 0.00 0.00 85 1013.2
20171119131737 35 204 22.0 29.0 0.00 0.00 0.00 85 1016.4
20171119131238 35 194 20.0 24.0 0.00 0.00 0.00 84 1016.2
20171119130737 35 151 19.0 26.0 0.00 0.00 0.00 84 1009.5
20171119130238 35 193 14.0 26.0 0.00 0.00 0.00 83 1016.0
20171119125737 35 159 19.0 26.0 0.00 0.00 0.00 83 1016.0
20171119125238 35 172 19.0 27.0 0.00 0.00 0.00 83 1016.0
20171119124737 35 186 19.0 27.0 0.00 0.00 0.00 83 1016.0
20171119124237 35 179 19.0 27.0 0.00 0.00 0.00 83 1015.9
20171119123737 35 168 18.0 25.0 0.00 0.00 0.00 84 1015.8
20171119123237 35 183 17.0 29.0 0.00 0.00 0.00 84 1012.5
20171119122737 35 189 17.0 29.0 0.00 0.00 0.00 83 1015.9
20171119122237 35 173 18.0 29.0 0.00 0.00 0.00 83 1016.2
20171119121737 35 191 16.0 27.0 0.00 0.00 0.00 83 1016.3
20171119121237 35 357 21.0 21.0 0.00 0.00 0.00 83 1016.2
20171119120737 35 357 1.0 17.0 0.00 0.00 0.00 83 1016.3
20171119120237 35 357 0.0 17.0 0.00 0.00 0.00 82 1016.5
20171119115737 35 357 0.0 22.0 0.00 0.00 0.00 82 1013.5
20171119115237 35 0 0.0 22.0 0.00 0.00 0.00 81 1016.7
20171119114737 35 357 0.0 22.0 0.00 0.00 0.00 81 1013.9
20171119114237 35 357 0.0 14.0 0.00 0.00 0.00 80 1013.7
20171119113737 35 357 0.0 14.0 0.00 0.00 0.00 80 1013.8
20171119113237 35 357 0.0 2.0 0.00 0.00 0.00 80 1016.9
20171119112737 36 0 0.0 0.0 0.00 0.00 0.00 79 1016.8
20171119112237 35 0 0.0 0.0 0.00 0.00 0.00 79 1016.8
20171119111737 35 0 0.0 0.0 0.00 0.00 0.00 79 1014.8
20171119111237 35 0 0.0 0.0 0.00 0.00 0.00 79 1017.0
20171119110739 35 0 0.0 0.0 0.00 0.00 0.00 79 1016.9
20171119110237 35 0 0.0 23.0 0.00 0.00 0.00 79 1016.9
20171119105737 35 0 0.0 23.0 0.00 0.00 0.00 80 1016.8
20171119105237 35 0 0.0 23.0 0.00 0.00 0.00 80 1016.9
20171119104737 35 168 0.0 24.0 0.00 0.00 0.00 81 1016.9
20171119104237 35 173 0.0 24.0 0.00 0.00 0.00 81 1016.8
20171119103737 35 145 19.0 24.0 0.00 0.00 0.00 82 1016.8
20171119103237 35 169 19.0 23.0 0.00 0.00 0.00 83 1016.7
20171119102737 35 169 14.0 23.0 0.00 0.00 0.00 84 1014.0
20171119102237 35 170 19.0 23.0 0.00 0.00 0.00 85 1016.8
20171119101737 35 169 15.0 24.0 0.00 0.00 0.00 86 1014.0
20171119101237 35 184 14.0 24.0 0.00 0.00 0.00 86 1013.9
20171119100737 36 187 19.0 24.0 0.00 0.00 0.00 87 1017.0
20171119100237 35 170 18.0 23.0 0.00 0.00 0.00 88 1017.2
20171119095737 35 170 19.0 23.0 0.00 0.00 0.00 88 1015.3
20171119095237 35 183 17.0 23.0 0.00 0.00 0.00 89 1017.4
20171119094737 35 175 14.0 23.0 0.00 0.00 0.00 89 1017.5
20171119094237 35 176 18.0 23.0 0.00 0.00 0.00 90 1017.7
20171119093737 35 177 18.0 23.0 0.00 0.00 0.00 90 1017.7
20171119093238 35 197 15.0 23.0 0.00 0.00 0.00 90 1017.7
20171119092737 35 175 18.0 21.0 0.00 0.00 0.00 91 1017.7
20171119092237 35 180 17.0 22.0 0.00 0.00 0.00 91 1017.6
20171119091737 35 156 15.0 22.0 0.00 0.00 0.00 91 1017.6
20171119091237 35 180 15.0 22.0 0.00 0.00 0.00 92 1017.6
20171119090737 35 163 16.0 25.0 0.00 0.00 0.00 92 1017.6
20171119090237 35 173 18.0 25.0 0.00 0.00 0.00 92 1014.6
20171119085737 35 138 18.0 25.0 0.00 0.00 0.00 92 1017.7
20171119085237 35 124 18.0 24.0 0.00 0.01 0.00 92 1014.2
20171119084738 35 168 18.0 24.0 0.00 0.01 0.00 92 1014.9
20171119084237 35 163 17.0 24.0 0.00 0.01 0.00 92 1018.2
20171119083738 35 183 17.0 22.0 0.00 0.01 0.00 92 1018.2
20171119083237 35 159 17.0 22.0 0.00 0.01 0.00 92 1018.3
20171119082737 35 169 18.0 22.0 0.00 0.01 0.00 92 1018.3
20171119082237 35 191 18.0 22.0 0.00 0.01 0.00 92 1018.2
20171119081737 35 177 17.0 22.0 0.00 0.01 0.00 92 1018.4
20171119081236 35 190 19.0 22.0 0.00 0.01 0.00 91 1018.4
20171119080736 35 191 14.0 22.0 0.00 0.01 0.00 91 1018.4
20171119080237 36 189 14.0 22.0 0.00 0.01 0.00 91 1015.0
20171119075737 35 196 14.0 21.0 0.00 0.01 0.00 91 1018.6
20171119075236 35 156 14.0 21.0 0.00 0.01 0.00 90 1018.7
20171119074738 35 187 15.0 21.0 0.00 0.01 0.00 90 1015.8
20171119074237 36 189 16.0 20.0 0.00 0.01 0.00 90 1015.5